Wetterdaten: Woche 01.07.13 - 07.07.13 (KW27)
Datum Zeit Temp. Aussen +5cm Feuchte Auss Luftdruck Regen Sonnenschein Regendauer UV Solar Windben
01.07.2013 00:00 16,9 C 14,9 C 87 % 1018,6 hPa 0,0 l/m 0,00 h 0,00 h 0,0 UV-I 0 W/m 2,1 km/h (1 Bft)
01.07.2013 01:00 16,2 C 14,4 C 90 % 1018,3 hPa 0,0 l/m 0,00 h 0,00 h 0,0 UV-I 0 W/m 2,1 km/h (1 Bft)
01.07.2013 02:00 15,6 C 14,0 C 92 % 1017,9 hPa 0,0 l/m 0,00 h 0,00 h 0,0 UV-I 0 W/m 2,7 km/h (1 Bft)
01.07.2013 03:00 15,2 C 13,7 C 93 % 1017,5 hPa 0,0 l/m 0,00 h 0,00 h 0,0 UV-I 0 W/m 2,3 km/h (1 Bft)
01.07.2013 04:00 14,7 C 13,2 C 94 % 1017,1 hPa 0,0 l/m 0,00 h 0,00 h 0,0 UV-I 0 W/m 1,9 km/h (1 Bft)
01.07.2013 05:00 14,3 C 12,9 C 95 % 1017,0 hPa 0,0 l/m 0,00 h 0,00 h 0,0 UV-I 10 W/m 0,9 km/h (0 Bft)
01.07.2013 06:00 14,3 C 13,4 C 96 % 1017,0 hPa 0,0 l/m 0,00 h 0,00 h 0,0 UV-I 35 W/m 3,8 km/h (1 Bft)
01.07.2013 07:00 15,2 C 14,8 C 96 % 1017,1 hPa 0,0 l/m 0,00 h 0,00 h 0,0 UV-I 86 W/m 8,9 km/h (2 Bft)
01.07.2013 08:00 15,9 C 15,7 C 93 % 1017,1 hPa 0,0 l/m 0,00 h 0,00 h 0,5 UV-I 165 W/m 8,9 km/h (2 Bft)
01.07.2013 09:00 16,6 C 16,2 C 90 % 1017,4 hPa 0,0 l/m 0,00 h 0,00 h 0,0 UV-I 154 W/m 5,1 km/h (1 Bft)
01.07.2013 10:00 16,5 C 15,7 C 89 % 1017,5 hPa 0,0 l/m 0,00 h 0,00 h 0,0 UV-I 116 W/m 3,6 km/h (1 Bft)
01.07.2013 11:00 16,3 C 15,9 C 89 % 1017,6 hPa 0,0 l/m 0,00 h 0,00 h 0,5 UV-I 139 W/m 6,3 km/h (2 Bft)
01.07.2013 12:00 17,5 C 20,0 C 87 % 1017,6 hPa 0,0 l/m 0,37 h 0,00 h 3,3 UV-I 474 W/m 5,9 km/h (2 Bft)
01.07.2013 13:00 19,8 C 23,6 C 79 % 1017,3 hPa 0,0 l/m 0,73 h 0,00 h 3,5 UV-I 736 W/m 11,0 km/h (2 Bft)
01.07.2013 14:00 21,1 C 22,8 C 73 % 1016,8 hPa 0,0 l/m 0,93 h 0,00 h 5,0 UV-I 801 W/m 11,3 km/h (2 Bft)
01.07.2013 15:00 21,5 C 22,6 C 70 % 1016,4 hPa 0,0 l/m 0,93 h 0,00 h 3,4 UV-I 594 W/m 10,4 km/h (2 Bft)
01.07.2013 16:00 21,0 C 21,5 C 71 % 1016,3 hPa 0,0 l/m 0,87 h 0,00 h 2,2 UV-I 457 W/m 11,4 km/h (2 Bft)
01.07.2013 17:00 20,6 C 20,8 C 71 % 1016,0 hPa 0,0 l/m 0,30 h 0,00 h 1,0 UV-I 313 W/m 9,0 km/h (2 Bft)
01.07.2013 18:00 20,3 C 20,0 C 72 % 1015,5 hPa 0,0 l/m 0,00 h 0,00 h 0,6 UV-I 211 W/m 7,1 km/h (2 Bft)
01.07.2013 19:00 19,9 C 18,9 C 73 % 1015,5 hPa 0,0 l/m 0,00 h 0,00 h 0,0 UV-I 82 W/m 3,0 km/h (1 Bft)
01.07.2013 20:00 19,6 C 18,0 C 72 % 1015,5 hPa 0,0 l/m 0,07 h 0,00 h 0,0 UV-I 55 W/m 2,8 km/h (1 Bft)
01.07.2013 21:00 18,9 C 16,6 C 74 % 1015,7 hPa 0,0 l/m 0,20 h 0,00 h 0,0 UV-I 18 W/m 0,0 km/h (0 Bft)
01.07.2013 22:00 17,6 C 14,4 C 78 % 1016,0 hPa 0,0 l/m 0,00 h 0,00 h 0,0 UV-I 5 W/m 0,0 km/h (0 Bft)
01.07.2013 23:00 16,1 C 13,6 C 84 % 1016,1 hPa 0,0 l/m 0,00 h 0,00 h 0,0 UV-I 0 W/m 0,0 km/h (0 Bft)
02.07.2013 00:00 14,9 C 12,3 C 87 % 1016,1 hPa 0,0 l/m 0,00 h 0,00 h 0,0 UV-I 0 W/m 0,0 km/h (0 Bft)
02.07.2013 01:00 13,7 C 11,6 C 90 % 1015,9 hPa 0,0 l/m 0,00 h 0,00 h 0,0 UV-I 0 W/m 0,0 km/h (0 Bft)
02.07.2013 02:00 12,9 C 11,0 C 92 % 1015,9 hPa 0,0 l/m 0,00 h 0,00 h 0,0 UV-I 0 W/m 0,0 km/h (0 Bft)
02.07.2013 03:00 12,2 C 10,4 C 93 % 1015,8 hPa 0,0 l/m 0,00 h 0,00 h 0,0 UV-I 0 W/m 0,0 km/h (0 Bft)
02.07.2013 04:00 11,5 C 9,9 C 93 % 1015,6 hPa 0,0 l/m 0,00 h 0,00 h 0,0 UV-I 0 W/m 0,0 km/h (0 Bft)
02.07.2013 05:00 10,9 C 9,7 C 94 % 1015,6 hPa 0,0 l/m 0,00 h 0,00 h 0,0 UV-I 7 W/m 0,0 km/h (0 Bft)
02.07.2013 06:00 11,2 C 11,3 C 95 % 1015,7 hPa 0,0 l/m 0,00 h 0,00 h 0,0 UV-I 44 W/m 0,5 km/h (0 Bft)
02.07.2013 07:00 12,4 C 12,7 C 97 % 1015,9 hPa 0,0 l/m 0,03 h 0,00 h 0,0 UV-I 99 W/m 0,1 km/h (0 Bft)
02.07.2013 08:00 13,4 C 13,3 C 97 % 1015,9 hPa 0,0 l/m 0,90 h 0,00 h 0,6 UV-I 319 W/m 0,8 km/h (0 Bft)
02.07.2013 09:00 16,7 C 15,9 C 86 % 1015,7 hPa 0,0 l/m 0,93 h 0,00 h 1,4 UV-I 497 W/m 1,5 km/h (1 Bft)
02.07.2013 10:00 19,4 C 23,6 C 71 % 1015,5 hPa 0,0 l/m 0,97 h 0,00 h 2,5 UV-I 631 W/m 6,2 km/h (2 Bft)
02.07.2013 11:00 20,5 C 26,4 C 65 % 1015,2 hPa 0,0 l/m 0,97 h 0,00 h 3,8 UV-I 776 W/m 8,3 km/h (2 Bft)
02.07.2013 12:00 20,8 C 27,6 C 64 % 1014,9 hPa 0,0 l/m 0,87 h 0,00 h 4,2 UV-I 781 W/m 10,4 km/h (2 Bft)
02.07.2013 13:00 21,9 C 27,6 C 62 % 1014,5 hPa 0,0 l/m 0,87 h 0,00 h 2,8 UV-I 741 W/m 7,8 km/h (2 Bft)
02.07.2013 14:00 22,9 C 24,4 C 57 % 1014,0 hPa 0,0 l/m 0,93 h 0,00 h 4,4 UV-I 771 W/m 8,5 km/h (2 Bft)
02.07.2013 15:00 23,8 C 24,6 C 53 % 1013,3 hPa 0,0 l/m 0,90 h 0,00 h 4,0 UV-I 752 W/m 11,0 km/h (2 Bft)
02.07.2013 16:00 23,8 C 24,9 C 51 % 1012,8 hPa 0,0 l/m 0,67 h 0,00 h 2,3 UV-I 501 W/m 6,7 km/h (2 Bft)
02.07.2013 17:00 23,3 C 23,0 C 53 % 1012,2 hPa 0,0 l/m 0,33 h 0,00 h 1,1 UV-I 317 W/m 2,1 km/h (1 Bft)
02.07.2013 18:00 23,1 C 22,7 C 54 % 1011,4 hPa 0,0 l/m 0,17 h 0,00 h 0,7 UV-I 225 W/m 1,4 km/h (1 Bft)
02.07.2013 19:00 22,5 C 21,5 C 57 % 1011,0 hPa 0,0 l/m 0,00 h 0,00 h 0,0 UV-I 96 W/m 0,6 km/h (0 Bft)
02.07.2013 20:00 21,8 C 20,1 C 60 % 1010,6 hPa 0,0 l/m 0,00 h 0,00 h 0,0 UV-I 46 W/m 0,1 km/h (0 Bft)
02.07.2013 21:00 21,4 C 18,2 C 64 % 1009,9 hPa 0,0 l/m 0,00 h 0,00 h 0,0 UV-I 9 W/m 0,0 km/h (0 Bft)
02.07.2013 22:00 20,1 C 17,0 C 70 % 1009,5 hPa 0,0 l/m 0,00 h 0,00 h 0,0 UV-I 0 W/m 0,0 km/h (0 Bft)
02.07.2013 23:00 19,1 C 16,2 C 73 % 1009,0 hPa 0,0 l/m 0,00 h 0,00 h 0,0 UV-I 0 W/m 0,0 km/h (0 Bft)
03.07.2013 00:00 18,3 C 16,1 C 76 % 1008,3 hPa 0,0 l/m 0,00 h 0,00 h 0,0 UV-I 0 W/m 0,0 km/h (0 Bft)
03.07.2013 01:00 18,2 C 16,6 C 78 % 1007,7 hPa 0,0 l/m 0,00 h 0,07 h 0,0 UV-I 0 W/m 3,0 km/h (1 Bft)
03.07.2013 02:00 18,2 C 15,9 C 82 % 1006,9 hPa 0,0 l/m 0,00 h 0,60 h 0,0 UV-I 0 W/m 4,5 km/h (1 Bft)
03.07.2013 03:00 17,9 C 15,9 C 86 % 1006,4 hPa 0,0 l/m 0,00 h 0,00 h 0,0 UV-I 0 W/m 2,0 km/h (1 Bft)
03.07.2013 04:00 17,7 C 16,2 C 88 % 1005,9 hPa 0,0 l/m 0,00 h 0,00 h 0,0 UV-I 0 W/m 6,6 km/h (2 Bft)
03.07.2013 05:00 17,6 C 16,1 C 90 % 1005,7 hPa 0,0 l/m 0,00 h 0,10 h 0,0 UV-I 14 W/m 1,2 km/h (1 Bft)
03.07.2013 06:00 17,5 C 16,1 C 91 % 1005,9 hPa 0,2 l/m 0,00 h 0,20 h 0,0 UV-I 13 W/m 3,8 km/h (1 Bft)
03.07.2013 07:00 17,5 C 15,9 C 93 % 1006,3 hPa 2,2 l/m 0,00 h 0,97 h 0,0 UV-I 30 W/m 0,4 km/h (0 Bft)
03.07.2013 08:00 17,6 C 16,4 C 96 % 1006,5 hPa 1,2 l/m 0,00 h 0,97 h 0,0 UV-I 64 W/m 0,4 km/h (0 Bft)
03.07.2013 09:00 17,8 C 16,5 C 97 % 1007,2 hPa 2,0 l/m 0,00 h 0,97 h 0,0 UV-I 51 W/m 0,3 km/h (0 Bft)
03.07.2013 10:00 17,5 C 16,2 C 96 % 1007,4 hPa 0,4 l/m 0,00 h 0,97 h 0,5 UV-I 131 W/m 0,0 km/h (0 Bft)
03.07.2013 11:00 17,3 C 16,2 C 96 % 1007,7 hPa 1,0 l/m 0,00 h 0,97 h 0,7 UV-I 178 W/m 2,6 km/h (1 Bft)
03.07.2013 12:00 17,2 C 16,1 C 97 % 1008,1 hPa 0,6 l/m 0,00 h 0,97 h 0,8 UV-I 126 W/m 4,0 km/h (1 Bft)
03.07.2013 13:00 17,2 C 16,4 C 97 % 1008,6 hPa 0,2 l/m 0,00 h 0,57 h 1,4 UV-I 249 W/m 6,0 km/h (2 Bft)
03.07.2013 14:00 17,7 C 16,6 C 94 % 1009,1 hPa 0,0 l/m 0,03 h 0,00 h 1,3 UV-I 230 W/m 5,4 km/h (1 Bft)
03.07.2013 15:00 18,5 C 18,1 C 90 % 1009,5 hPa 0,0 l/m 0,20 h 0,00 h 1,8 UV-I 337 W/m 7,1 km/h (2 Bft)
03.07.2013 16:00 18,2 C 17,1 C 90 % 1010,2 hPa 0,0 l/m 0,00 h 0,10 h 0,7 UV-I 152 W/m 5,6 km/h (1 Bft)
03.07.2013 17:00 17,7 C 16,7 C 92 % 1010,8 hPa 0,0 l/m 0,00 h 0,00 h 0,0 UV-I 85 W/m 4,2 km/h (1 Bft)
03.07.2013 18:00 17,7 C 16,9 C 93 % 1011,3 hPa 0,0 l/m 0,00 h 0,00 h 0,0 UV-I 94 W/m 2,2 km/h (1 Bft)
03.07.2013 19:00 18,2 C 17,8 C 92 % 1011,9 hPa 0,0 l/m 0,00 h 0,03 h 0,0 UV-I 111 W/m 3,0 km/h (1 Bft)
03.07.2013 20:00 18,3 C 16,8 C 91 % 1012,7 hPa 0,0 l/m 0,00 h 0,07 h 0,0 UV-I 29 W/m 0,3 km/h (0 Bft)
03.07.2013 21:00 17,8 C 15,8 C 92 % 1013,5 hPa 0,0 l/m 0,00 h 0,00 h 0,0 UV-I 8 W/m 0,0 km/h (0 Bft)
03.07.2013 22:00 17,4 C 15,7 C 93 % 1014,5 hPa 0,0 l/m 0,00 h 0,00 h 0,0 UV-I 0 W/m 0,0 km/h (0 Bft)
03.07.2013 23:00 16,9 C 15,3 C 94 % 1015,0 hPa 0,0 l/m 0,00 h 0,00 h 0,0 UV-I 0 W/m 1,1 km/h (0 Bft)
04.07.2013 00:00 16,0 C 13,6 C 93 % 1015,6 hPa 0,0 l/m 0,00 h 0,00 h 0,0 UV-I 0 W/m 0,0 km/h (0 Bft)
04.07.2013 01:00 15,5 C 14,5 C 94 % 1016,1 hPa 0,0 l/m 0,00 h 0,00 h 0,0 UV-I 0 W/m 0,1 km/h (0 Bft)
04.07.2013 02:00 15,6 C 14,6 C 96 % 1016,5 hPa 0,0 l/m 0,00 h 0,00 h 0,0 UV-I 0 W/m 0,3 km/h (0 Bft)
04.07.2013 03:00 15,3 C 14,1 C 96 % 1016,6 hPa 0,0 l/m 0,00 h 0,00 h 0,0 UV-I 0 W/m 0,0 km/h (0 Bft)
04.07.2013 04:00 15,1 C 14,0 C 96 % 1016,9 hPa 0,0 l/m 0,00 h 0,00 h 0,0 UV-I 0 W/m 0,0 km/h (0 Bft)
04.07.2013 05:00 15,1 C 14,1 C 97 % 1017,3 hPa 0,0 l/m 0,00 h 0,00 h 0,0 UV-I 6 W/m 1,6 km/h (1 Bft)
04.07.2013 06:00 14,9 C 14,0 C 97 % 1017,7 hPa 0,0 l/m 0,00 h 0,27 h 0,0 UV-I 17 W/m 2,4 km/h (1 Bft)
04.07.2013 07:00 15,2 C 14,4 C 97 % 1018,2 hPa 0,0 l/m 0,00 h 0,03 h 0,0 UV-I 68 W/m 4,0 km/h (1 Bft)
04.07.2013 08:00 15,7 C 15,3 C 96 % 1018,9 hPa 0,0 l/m 0,00 h 0,00 h 0,0 UV-I 124 W/m 8,0 km/h (2 Bft)
04.07.2013 09:00 16,3 C 16,0 C 93 % 1019,6 hPa 0,0 l/m 0,00 h 0,00 h 0,0 UV-I 147 W/m 5,6 km/h (1 Bft)
04.07.2013 10:00 16,7 C 16,4 C 92 % 1020,2 hPa 0,0 l/m 0,00 h 0,00 h 0,6 UV-I 158 W/m 5,1 km/h (1 Bft)
04.07.2013 11:00 17,5 C 18,0 C 90 % 1020,5 hPa 0,0 l/m 0,00 h 0,00 h 1,4 UV-I 292 W/m 5,8 km/h (2 Bft)
04.07.2013 12:00 19,5 C 23,3 C 85 % 1020,6 hPa 0,0 l/m 0,67 h 0,00 h 3,7 UV-I 668 W/m 5,3 km/h (1 Bft)
04.07.2013 13:00 21,2 C 24,8 C 80 % 1020,6 hPa 0,0 l/m 0,30 h 0,00 h 3,0 UV-I 546 W/m 5,7 km/h (1 Bft)
04.07.2013 14:00 22,6 C 23,5 C 75 % 1020,6 hPa 0,0 l/m 0,67 h 0,00 h 4,1 UV-I 723 W/m 6,6 km/h (2 Bft)
04.07.2013 15:00 22,5 C 22,8 C 73 % 1020,8 hPa 0,0 l/m 0,30 h 0,00 h 2,4 UV-I 485 W/m 9,1 km/h (2 Bft)
04.07.2013 16:00 21,8 C 21,7 C 74 % 1021,2 hPa 0,0 l/m 0,23 h 0,00 h 1,5 UV-I 289 W/m 8,1 km/h (2 Bft)
04.07.2013 17:00 22,5 C 22,6 C 72 % 1021,3 hPa 0,0 l/m 0,60 h 0,00 h 1,6 UV-I 426 W/m 9,6 km/h (2 Bft)
04.07.2013 18:00 22,1 C 21,1 C 69 % 1021,4 hPa 0,0 l/m 0,50 h 0,00 h 0,9 UV-I 281 W/m 12,8 km/h (3 Bft)
04.07.2013 19:00 21,2 C 20,7 C 72 % 1021,9 hPa 0,0 l/m 0,27 h 0,00 h 0,0 UV-I 150 W/m 11,8 km/h (2 Bft)
04.07.2013 20:00 20,1 C 18,8 C 76 % 1022,6 hPa 0,0 l/m 0,00 h 0,00 h 0,0 UV-I 45 W/m 8,9 km/h (2 Bft)
04.07.2013 21:00 19,3 C 17,3 C 78 % 1023,3 hPa 0,0 l/m 0,00 h 0,00 h 0,0 UV-I 18 W/m 5,9 km/h (2 Bft)
04.07.2013 22:00 18,4 C 16,8 C 82 % 1023,9 hPa 0,0 l/m 0,00 h 0,00 h 0,0 UV-I 0 W/m 4,1 km/h (1 Bft)
04.07.2013 23:00 18,2 C 16,8 C 84 % 1024,2 hPa 0,0 l/m 0,00 h 0,00 h 0,0 UV-I 0 W/m 1,1 km/h (0 Bft)
05.07.2013 00:00 17,9 C 16,8 C 85 % 1024,7 hPa 0,0 l/m 0,00 h 0,00 h 0,0 UV-I 0 W/m 2,4 km/h (1 Bft)
05.07.2013 01:00 17,7 C 16,2 C 87 % 1025,0 hPa 0,0 l/m 0,00 h 0,00 h 0,0 UV-I 0 W/m 1,6 km/h (1 Bft)
05.07.2013 02:00 17,5 C 16,2 C 88 % 1025,3 hPa 0,0 l/m 0,00 h 0,00 h 0,0 UV-I 0 W/m 0,0 km/h (0 Bft)
05.07.2013 03:00 17,3 C 15,9 C 89 % 1025,4 hPa 0,0 l/m 0,00 h 0,00 h 0,0 UV-I 0 W/m 0,0 km/h (0 Bft)
05.07.2013 04:00 17,0 C 15,3 C 90 % 1025,5 hPa 0,0 l/m 0,00 h 0,00 h 0,0 UV-I 0 W/m 0,0 km/h (0 Bft)
05.07.2013 05:00 16,5 C 14,9 C 91 % 1025,7 hPa 0,0 l/m 0,00 h 0,00 h 0,0 UV-I 9 W/m 0,0 km/h (0 Bft)
05.07.2013 06:00 16,3 C 15,5 C 92 % 1026,1 hPa 0,0 l/m 0,00 h 0,00 h 0,0 UV-I 33 W/m 0,0 km/h (0 Bft)
05.07.2013 07:00 16,7 C 16,4 C 94 % 1026,7 hPa 0,0 l/m 0,00 h 0,00 h 0,0 UV-I 69 W/m 0,0 km/h (0 Bft)
05.07.2013 08:00 17,5 C 17,6 C 92 % 1027,2 hPa 0,0 l/m 0,00 h 0,00 h 0,0 UV-I 167 W/m 0,0 km/h (0 Bft)
05.07.2013 09:00 18,8 C 19,0 C 87 % 1027,9 hPa 0,0 l/m 0,00 h 0,00 h 0,8 UV-I 268 W/m 3,9 km/h (1 Bft)
05.07.2013 10:00 19,8 C 22,8 C 83 % 1028,0 hPa 0,0 l/m 0,60 h 0,00 h 2,0 UV-I 511 W/m 5,2 km/h (1 Bft)
05.07.2013 11:00 20,6 C 23,5 C 78 % 1028,2 hPa 0,0 l/m 0,70 h 0,00 h 2,3 UV-I 488 W/m 3,4 km/h (1 Bft)
05.07.2013 12:00 21,6 C 25,7 C 75 % 1028,4 hPa 0,0 l/m 0,63 h 0,00 h 3,3 UV-I 599 W/m 5,4 km/h (1 Bft)
05.07.2013 13:00 22,8 C 28,1 C 71 % 1028,4 hPa 0,0 l/m 0,67 h 0,00 h 3,0 UV-I 649 W/m 4,7 km/h (1 Bft)
05.07.2013 14:00 23,0 C 24,9 C 71 % 1028,4 hPa 0,0 l/m 0,63 h 0,00 h 3,9 UV-I 699 W/m 8,1 km/h (2 Bft)
05.07.2013 15:00 22,9 C 24,1 C 73 % 1028,5 hPa 0,0 l/m 0,30 h 0,00 h 2,3 UV-I 425 W/m 9,9 km/h (2 Bft)
05.07.2013 16:00 23,2 C 25,8 C 73 % 1028,5 hPa 0,0 l/m 0,87 h 0,00 h 2,6 UV-I 695 W/m 16,0 km/h (3 Bft)
05.07.2013 17:00 22,2 C 22,7 C 75 % 1028,5 hPa 0,0 l/m 0,53 h 0,00 h 1,4 UV-I 354 W/m 14,8 km/h (3 Bft)
05.07.2013 18:00 21,9 C 21,9 C 76 % 1028,5 hPa 0,0 l/m 0,53 h 0,00 h 0,7 UV-I 263 W/m 12,4 km/h (3 Bft)
05.07.2013 19:00 21,7 C 21,3 C 77 % 1028,5 hPa 0,0 l/m 0,00 h 0,00 h 0,0 UV-I 102 W/m 9,7 km/h (2 Bft)
05.07.2013 20:00 21,0 C 20,1 C 80 % 1028,8 hPa 0,0 l/m 0,00 h 0,00 h 0,0 UV-I 51 W/m 5,9 km/h (2 Bft)
05.07.2013 21:00 20,4 C 18,2 C 82 % 1029,0 hPa 0,0 l/m 0,00 h 0,00 h 0,0 UV-I 15 W/m 0,2 km/h (0 Bft)
05.07.2013 22:00 19,2 C 16,1 C 85 % 1029,4 hPa 0,0 l/m 0,00 h 0,00 h 0,0 UV-I 0 W/m 0,0 km/h (0 Bft)
05.07.2013 23:00 17,9 C 15,2 C 89 % 1029,6 hPa 0,0 l/m 0,00 h 0,00 h 0,0 UV-I 0 W/m 0,0 km/h (0 Bft)
06.07.2013 00:00 16,9 C 14,6 C 91 % 1029,7 hPa 0,0 l/m 0,00 h 0,00 h 0,0 UV-I 0 W/m 0,0 km/h (0 Bft)
06.07.2013 01:00 16,2 C 13,9 C 93 % 1029,8 hPa 0,0 l/m 0,00 h 0,00 h 0,0 UV-I 0 W/m 0,0 km/h (0 Bft)
06.07.2013 02:00 15,6 C 13,4 C 94 % 1029,6 hPa 0,0 l/m 0,00 h 0,00 h 0,0 UV-I 0 W/m 0,0 km/h (0 Bft)
06.07.2013 03:00 15,0 C 12,9 C 95 % 1029,5 hPa 0,0 l/m 0,00 h 0,00 h 0,0 UV-I 0 W/m 0,0 km/h (0 Bft)
06.07.2013 04:00 14,6 C 12,7 C 95 % 1029,5 hPa 0,0 l/m 0,00 h 0,00 h 0,0 UV-I 0 W/m 0,0 km/h (0 Bft)
06.07.2013 05:00 14,1 C 12,3 C 95 % 1029,5 hPa 0,0 l/m 0,00 h 0,00 h 0,0 UV-I 10 W/m 0,0 km/h (0 Bft)
06.07.2013 06:00 13,9 C 12,9 C 96 % 1029,5 hPa 0,0 l/m 0,00 h 0,00 h 0,0 UV-I 38 W/m 0,0 km/h (0 Bft)
06.07.2013 07:00 15,3 C 15,1 C 98 % 1029,5 hPa 0,0 l/m 0,03 h 0,00 h 0,0 UV-I 86 W/m 1,6 km/h (1 Bft)
06.07.2013 08:00 16,9 C 17,0 C 98 % 1029,6 hPa 0,0 l/m 0,97 h 0,00 h 0,6 UV-I 295 W/m 3,6 km/h (1 Bft)
06.07.2013 09:00 19,9 C 19,4 C 89 % 1029,6 hPa 0,0 l/m 0,97 h 0,00 h 1,3 UV-I 462 W/m 3,7 km/h (1 Bft)
06.07.2013 10:00 22,8 C 27,6 C 76 % 1029,5 hPa 0,0 l/m 0,97 h 0,00 h 2,4 UV-I 605 W/m 3,8 km/h (1 Bft)
06.07.2013 11:00 24,6 C 29,9 C 67 % 1029,3 hPa 0,0 l/m 0,97 h 0,00 h 3,6 UV-I 723 W/m 5,4 km/h (1 Bft)
06.07.2013 12:00 25,4 C 32,9 C 60 % 1029,2 hPa 0,0 l/m 0,97 h 0,00 h 4,5 UV-I 801 W/m 9,8 km/h (2 Bft)
06.07.2013 13:00 26,7 C 32,9 C 55 % 1029,0 hPa 0,0 l/m 0,97 h 0,00 h 3,1 UV-I 850 W/m 8,9 km/h (2 Bft)
06.07.2013 14:00 26,8 C 27,5 C 55 % 1028,6 hPa 0,0 l/m 0,83 h 0,00 h 4,3 UV-I 761 W/m 10,7 km/h (2 Bft)
06.07.2013 15:00 27,1 C 27,6 C 53 % 1028,2 hPa 0,0 l/m 0,72 h 0,00 h 3,5 UV-I 660 W/m 9,7 km/h (2 Bft)
06.07.2013 16:00 27,3 C 28,7 C 52 % 1027,9 hPa 0,0 l/m 0,80 h 0,00 h 2,7 UV-I 586 W/m 7,3 km/h (2 Bft)
06.07.2013 17:00 26,6 C 26,2 C 54 % 1027,6 hPa 0,0 l/m 0,40 h 0,00 h 1,4 UV-I 308 W/m 7,6 km/h (2 Bft)
06.07.2013 18:00 26,2 C 25,6 C 57 % 1027,4 hPa 0,0 l/m 0,43 h 0,00 h 0,8 UV-I 259 W/m 11,2 km/h (2 Bft)
06.07.2013 19:00 25,6 C 24,0 C 58 % 1027,4 hPa 0,0 l/m 0,00 h 0,00 h 0,0 UV-I 104 W/m 12,9 km/h (3 Bft)
06.07.2013 20:00 24,5 C 22,4 C 61 % 1027,6 hPa 0,0 l/m 0,00 h 0,00 h 0,0 UV-I 39 W/m 2,8 km/h (1 Bft)
06.07.2013 21:00 23,4 C 21,1 C 64 % 1027,8 hPa 0,0 l/m 0,00 h 0,00 h 0,0 UV-I 13 W/m 2,0 km/h (1 Bft)
06.07.2013 22:00 21,7 C 18,3 C 69 % 1028,4 hPa 0,0 l/m 0,00 h 0,00 h 0,0 UV-I 0 W/m 0,1 km/h (0 Bft)
06.07.2013 23:00 20,0 C 16,3 C 74 % 1028,8 hPa 0,0 l/m 0,00 h 0,00 h 0,0 UV-I 0 W/m 0,0 km/h (0 Bft)
07.07.2013 00:00 18,3 C 15,3 C 79 % 1029,1 hPa 0,0 l/m 0,00 h 0,00 h 0,0 UV-I 0 W/m 0,0 km/h (0 Bft)
07.07.2013 01:00 17,4 C 14,9 C 80 % 1029,2 hPa 0,0 l/m 0,00 h 0,00 h 0,0 UV-I 0 W/m 0,0 km/h (0 Bft)
07.07.2013 02:00 16,8 C 14,0 C 82 % 1029,3 hPa 0,0 l/m 0,00 h 0,00 h 0,0 UV-I 0 W/m 0,0 km/h (0 Bft)
07.07.2013 03:00 15,6 C 13,2 C 86 % 1029,2 hPa 0,0 l/m 0,00 h 0,00 h 0,0 UV-I 0 W/m 0,0 km/h (0 Bft)
07.07.2013 04:00 14,7 C 12,7 C 88 % 1029,1 hPa 0,0 l/m 0,00 h 0,00 h 0,0 UV-I 0 W/m 0,0 km/h (0 Bft)
07.07.2013 05:00 14,0 C 12,3 C 90 % 1029,2 hPa 0,0 l/m 0,00 h 0,00 h 0,0 UV-I 10 W/m 0,0 km/h (0 Bft)
07.07.2013 06:00 13,7 C 12,5 C 91 % 1029,2 hPa 0,0 l/m 0,00 h 0,00 h 0,0 UV-I 32 W/m 0,0 km/h (0 Bft)
07.07.2013 07:00 14,5 C 14,5 C 93 % 1029,4 hPa 0,0 l/m 0,03 h 0,00 h 0,0 UV-I 64 W/m 0,8 km/h (0 Bft)
07.07.2013 08:00 17,2 C 17,1 C 89 % 1029,8 hPa 0,0 l/m 0,97 h 0,00 h 0,6 UV-I 328 W/m 1,1 km/h (0 Bft)
07.07.2013 09:00 20,9 C 20,3 C 78 % 1030,0 hPa 0,0 l/m 0,97 h 0,00 h 1,2 UV-I 480 W/m 3,1 km/h (1 Bft)
07.07.2013 10:00 24,0 C 28,9 C 68 % 1030,0 hPa 0,0 l/m 0,97 h 0,00 h 2,3 UV-I 613 W/m 6,3 km/h (2 Bft)
07.07.2013 11:00 25,1 C 29,7 C 61 % 1030,0 hPa 0,0 l/m 0,97 h 0,00 h 3,4 UV-I 722 W/m 15,1 km/h (3 Bft)
07.07.2013 12:00 26,1 C 33,3 C 57 % 1030,0 hPa 0,0 l/m 0,97 h 0,00 h 4,2 UV-I 797 W/m 9,4 km/h (2 Bft)
07.07.2013 13:00 26,5 C 31,9 C 53 % 1029,9 hPa 0,0 l/m 0,97 h 0,00 h 2,7 UV-I 824 W/m 13,0 km/h (3 Bft)
07.07.2013 14:00 27,1 C 27,3 C 50 % 1029,5 hPa 0,0 l/m 0,97 h 0,00 h 4,4 UV-I 811 W/m 13,2 km/h (3 Bft)
07.07.2013 15:00 27,4 C 27,5 C 47 % 1029,1 hPa 0,0 l/m 0,97 h 0,00 h 3,8 UV-I 754 W/m 14,5 km/h (3 Bft)
07.07.2013 16:00 27,7 C 28,3 C 44 % 1028,9 hPa 0,0 l/m 0,97 h 0,00 h 2,8 UV-I 660 W/m 13,8 km/h (3 Bft)
07.07.2013 17:00 27,5 C 26,7 C 46 % 1028,6 hPa 0,0 l/m 0,97 h 0,00 h 1,7 UV-I 526 W/m 16,9 km/h (3 Bft)
07.07.2013 18:00 27,0 C 25,7 C 50 % 1028,4 hPa 0,0 l/m 0,47 h 0,00 h 0,8 UV-I 239 W/m 16,1 km/h (3 Bft)
07.07.2013 19:00 26,2 C 24,9 C 51 % 1028,4 hPa 0,0 l/m 0,00 h 0,00 h 0,0 UV-I 62 W/m 14,8 km/h (3 Bft)
07.07.2013 20:00 25,4 C 23,7 C 55 % 1028,5 hPa 0,0 l/m 0,00 h 0,00 h 0,0 UV-I 35 W/m 8,4 km/h (2 Bft)
07.07.2013 21:00 24,1 C 21,1 C 60 % 1028,8 hPa 0,0 l/m 0,00 h 0,00 h 0,0 UV-I 11 W/m 1,2 km/h (1 Bft)
07.07.2013 22:00 22,2 C 18,2 C 65 % 1029,2 hPa 0,0 l/m 0,00 h 0,00 h 0,0 UV-I 0 W/m 0,0 km/h (0 Bft)
07.07.2013 23:00 20,1 C 16,5 C 72 % 1029,6 hPa 0,0 l/m 0,00 h 0,00 h 0,0 UV-I 0 W/m 0,3 km/h (0 Bft)
Min-Datum _ 02.07.13 02.07.13 07.07.13 03.07.13 - - - - - 01.07.13
_ Min-Zeit 05:46 05:32 16:20 05:54 - - - - - 00:02
Minimum _ 10,7 C 9,0 C 43 % 1005,6 hPa - - - - - 0,0 km/h (0 Bft)
Max-Datum _ 07.07.13 07.07.13 06.07.13 07.07.13 03.07.13 01.07.13 03.07.13 01.07.13 01.07.13 05.07.13
_ Max-Zeit 16:48 12:24 07:28 09:32 07:18 12:26 01:54 12:51 13:18 16:50
Maximum _ 28,1 C 35,1 C 98 % 1030,1 hPa 2,2 l/m 0,03 h 0,03 h 5,9 UV-I 1090 W/m 30,9 km/h
N-NW (5 Bft)
Durchschnitt _ 19,2 C 18,8 C 80 % 1020,7 hPa #7,8 l/m #41:21 h #7:50 h 2,2 UV-I 303 W/m 4,3 km/h (1 Bft)
© 2013 W. Hausmann